Etusivu
METAR-TAF:

METAR-TAF

Lentoasemat :

Bonrikin kansainvälinen lentoasema

Tarawa, Kiribati

Leveyspiiri: 01-21N, Pituuspiiri: 172-55E, korkeus merenpinnasta: 2 m

Tämänhetkinen sää

Tämä raportti tehtiin 37 minuuttia sitten, kello 18.00 UTC
Tuuli 1 kn eri suunnista
Lämpötila 24°C
Kosteus 94%
Ilmanpaine 1008 hPa
Näkyvyys 10 km tai enemmän
Muutamia pilviä 2000 ft:n korkeudessa

METAR: NGTA 211800Z VRB01KT 9999 FEW020 24/23 Q1008 RMK DEW

Aika: 08:37 (18:37 UTC)

Sääennuste

Tämä raportti tehtiin 1 tunti ja 23 minuuttia sitten, kello 17.14 UTC
Ennuste voimassa 21. päivästä klo 18 UTC - 22. päivään klo 18 UTC
Tuuli 5 kn idästä/koillisesta
Näkyvyys 10 km tai enemmän
Muutamia pilviä 2000 ft:n korkeudessa
Hajanaisia pilviä 30000 ft:n korkeudessa

TAF: NGTA 211714Z 2118/2218 07005KT 9999 FEW020 SCT300

Säähavainnot ja -ennusteet yli 4000 lentoasemalta (METAR- ja TAF-raportit).

Käytössä olevat sääasemat on merkitty karttaan keltaisilla ja punaisilla pisteillä.

Aseta hiiri pisteen päälle nähdäksesi sääaseman nimen.

Klikkaa sitten nähdäksesi säähavainnot ja -ennusteet.

Kartan vaihtaminen: klikkaa mustalla rastilla varustettuja vihreitä pisteitä, niin voit zoomata sisään; viivalla varustettua vihreää pistettä, niin voit zoomata ulos tai vihreitä nuolia, niin pääset viereisille kartoille.


METAR-TAF: